Time;durP1;ratioP1;P1;durP2;ratioP2;P2;SDS_P1;SDS_P2;PMS_P1;PMS_P2;Temp;Humidity;BMP_temperature;BMP_pressure;BME280_temperature;BME280_humidity;BME280_pressure;Samples;Min_cycle;Max_cycle;Signal;HPM_P1;HPM_P2
2022/11/29 00:00:30;;;;;;;37.67;23.88;;;;;;;6.05;100.00;101335.16;5015698;28;20026;-56
2022/11/29 00:02:55;;;;;;;39.45;24.20;;;;;;;6.04;100.00;101332.63;5023033;28;20040;-57
2022/11/29 00:05:21;;;;;;;26.50;17.80;;;;;;;5.98;100.00;101325.19;5019148;28;20042;-57
2022/11/29 00:07:46;;;;;;;23.48;15.10;;;;;;;5.91;100.00;101332.69;5011034;28;20038;-58
2022/11/29 00:10:11;;;;;;;29.58;17.02;;;;;;;5.85;100.00;101336.66;5012326;28;20030;-58
2022/11/29 00:12:37;;;;;;;29.42;17.63;;;;;;;5.84;100.00;101331.50;5016842;28;20037;-56
2022/11/29 00:15:02;;;;;;;29.08;19.30;;;;;;;5.81;100.00;101331.75;5010652;28;20048;-59
2022/11/29 00:17:28;;;;;;;27.85;18.45;;;;;;;5.78;100.00;101343.34;5015352;28;20051;-59
2022/11/29 00:19:53;;;;;;;29.20;19.45;;;;;;;5.75;100.00;101336.53;5015941;28;20074;-58
2022/11/29 00:22:18;;;;;;;31.90;20.35;;;;;;;5.72;100.00;101341.19;5011233;28;20103;-57
2022/11/29 00:24:43;;;;;;;29.85;19.83;;;;;;;5.70;100.00;101346.56;5018086;28;20044;-56
2022/11/29 00:27:09;;;;;;;30.67;20.20;;;;;;;5.72;100.00;101343.81;5013072;28;20041;-55
2022/11/29 00:29:34;;;;;;;29.20;19.50;;;;;;;5.73;100.00;101346.31;5016713;28;20026;-56
2022/11/29 00:32:00;;;;;;;32.95;20.20;;;;;;;5.73;100.00;101351.56;5019236;28;20137;-56
2022/11/29 00:34:25;;;;;;;29.17;19.98;;;;;;;5.75;100.00;101347.06;5018910;28;20061;-57
2022/11/29 00:36:50;;;;;;;26.65;19.60;;;;;;;5.76;100.00;101350.50;5016280;28;20030;-58
2022/11/29 00:39:16;;;;;;;26.23;18.55;;;;;;;5.81;100.00;101353.63;5015373;28;20036;-56
2022/11/29 00:41:41;;;;;;;26.17;18.63;;;;;;;5.81;100.00;101352.81;5022671;28;20519;-56
2022/11/29 00:44:08;;;;;;;29.15;19.92;;;;;;;5.78;100.00;101349.44;5011048;28;20091;-57
2022/11/29 00:46:33;;;;;;;34.95;21.40;;;;;;;5.72;100.00;101349.91;5022516;28;20037;-56
2022/11/29 00:48:58;;;;;;;30.92;20.02;;;;;;;5.72;100.00;101344.66;5021432;28;20043;-54
2022/11/29 00:51:23;;;;;;;29.98;20.38;;;;;;;5.73;100.00;101345.50;5016368;28;20036;-56
2022/11/29 00:53:49;;;;;;;30.85;20.02;;;;;;;5.77;100.00;101344.28;5014423;28;20088;-56
2022/11/29 00:56:15;;;;;;;27.95;19.50;;;;;;;5.75;100.00;101341.78;5017061;28;20030;-57
2022/11/29 00:58:42;;;;;;;28.60;20.17;;;;;;;5.75;100.00;101346.22;5016829;28;20029;-59
2022/11/29 01:01:07;;;;;;;32.47;20.00;;;;;;;5.78;100.00;101344.19;5011526;28;20045;-57
2022/11/29 01:03:33;;;;;;;32.08;20.60;;;;;;;5.78;100.00;101344.19;5018526;28;20033;-57
2022/11/29 01:06:04;;;;;;;32.70;21.65;;;;;;;5.76;100.00;101346.09;5018998;28;20029;-59
2022/11/29 01:08:29;;;;;;;33.28;20.98;;;;;;;5.72;100.00;101344.66;5012593;28;20041;-58
2022/11/29 01:11:04;;;;;;;29.13;20.10;;;;;;;5.76;100.00;101340.84;5017146;28;20030;-59
2022/11/29 01:13:30;;;;;;;32.80;21.73;;;;;;;5.70;100.00;101345.72;5012985;28;20040;-57
2022/11/29 01:15:56;;;;;;;32.90;21.65;;;;;;;5.71;100.00;101345.59;5021263;28;20040;-55
2022/11/29 01:18:22;;;;;;;35.85;21.48;;;;;;;5.67;100.00;101343.34;5019050;28;20088;-57
2022/11/29 01:21:19;;;;;;;33.58;21.63;;;;;;;5.70;100.00;101351.81;5019241;28;20034;-57
2022/11/29 01:23:45;;;;;;;31.10;21.20;;;;;;;5.67;100.00;101352.03;5006801;28;20683;-57
2022/11/29 01:26:16;;;;;;;33.08;20.42;;;;;;;5.73;100.00;101354.22;5007249;28;20045;-57
2022/11/29 01:28:44;;;;;;;34.83;20.13;;;;;;;5.67;100.00;101356.50;5010926;28;20069;-58
2022/11/29 01:31:12;;;;;;;36.35;20.80;;;;;;;5.65;100.00;101357.44;5009324;28;20037;-57
2022/11/29 01:33:37;;;;;;;33.22;20.73;;;;;;;5.67;100.00;101359.13;5009781;28;20037;-57
2022/11/29 01:36:04;;;;;;;34.63;20.48;;;;;;;5.64;100.00;101365.44;5009446;28;20040;-60
2022/11/29 01:38:30;;;;;;;39.33;21.50;;;;;;;5.57;100.00;101369.50;5008541;28;20048;-58
2022/11/29 01:41:04;;;;;;;46.30;22.13;;;;;;;5.56;100.00;101365.16;5023973;28;20053;-57
2022/11/29 01:43:30;;;;;;;41.72;21.60;;;;;;;5.54;100.00;101369.72;5010925;28;20464;-57
2022/11/29 01:45:56;;;;;;;46.13;22.50;;;;;;;5.54;100.00;101375.84;5017359;28;20522;-57
2022/11/29 01:48:25;;;;;;;58.40;23.23;;;;;;;5.58;100.00;101376.44;5017416;28;20026;-59
2022/11/29 01:50:53;;;;;;;42.47;23.08;;;;;;;5.62;100.00;101381.34;5019906;28;20083;-57
2022/11/29 01:53:19;;;;;;;70.57;22.90;;;;;;;5.65;100.00;101385.53;5020029;28;20124;-58
2022/11/29 01:55:51;;;;;;;68.00;24.25;;;;;;;5.65;100.00;101385.53;5018249;28;20060;-57
2022/11/29 01:58:16;;;;;;;73.70;24.55;;;;;;;5.65;100.00;101388.16;5007838;28;20487;-57
2022/11/29 02:00:42;;;;;;;73.28;25.38;;;;;;;5.66;100.00;101392.47;5013264;28;20029;-59
2022/11/29 02:03:13;;;;;;;70.43;24.15;;;;;;;5.66;100.00;101392.47;5016481;28;20083;-56
2022/11/29 02:05:43;;;;;;;58.25;24.10;;;;;;;5.63;100.00;101398.81;5015301;28;20045;-57
2022/11/29 02:08:12;;;;;;;50.15;24.15;;;;;;;5.61;100.00;101400.72;5010736;28;20042;-59
2022/11/29 02:10:58;;;;;;;53.55;24.00;;;;;;;5.60;100.00;101404.31;5021956;28;20033;-57
2022/11/29 02:13:26;;;;;;;67.63;24.50;;;;;;;5.59;100.00;101407.06;5021285;28;20029;-57
2022/11/29 02:16:07;;;;;;;56.72;23.75;;;;;;;5.58;100.00;101410.66;5019591;28;20449;-58
2022/11/29 02:18:59;;;;;;;69.07;23.40;;;;;;;5.58;100.00;101408.84;5014301;28;20034;-59
2022/11/29 02:21:45;;;;;;;45.70;23.52;;;;;;;5.59;100.00;101417.56;5013452;28;20384;-58
2022/11/29 02:24:35;;;;;;;55.97;23.73;;;;;;;5.54;100.00;101415.28;5014870;28;20044;-58
2022/11/29 02:27:16;;;;;;;52.08;22.70;;;;;;;5.54;100.00;101411.81;5023192;28;20041;-59
2022/11/29 02:30:06;;;;;;;52.38;22.08;;;;;;;5.54;100.00;101409.19;5017117;28;20095;-59
2022/11/29 02:33:08;;;;;;;59.20;22.38;;;;;;;5.51;100.00;101411.09;5017874;28;20034;-56
2022/11/29 02:35:55;;;;;;;61.92;22.20;;;;;;;5.50;100.00;101409.44;5014100;28;20065;-59
2022/11/29 02:38:29;;;;;;;58.25;22.75;;;;;;;5.50;100.00;101404.16;5018655;28;20033;-57
2022/11/29 02:41:20;;;;;;;55.65;21.75;;;;;;;5.50;100.00;101404.16;5021738;28;20050;-57
2022/11/29 02:43:48;;;;;;;43.40;21.65;;;;;;;5.52;100.00;101407.50;5013962;28;20037;-57
2022/11/29 02:46:37;;;;;;;56.58;21.42;;;;;;;5.51;100.00;101405.84;5017580;28;20033;-56
2022/11/29 02:49:25;;;;;;;41.63;21.35;;;;;;;5.54;100.00;101412.66;5014489;28;20037;-58
2022/11/29 02:51:59;;;;;;;41.08;20.90;;;;;;;5.48;100.00;101399.97;5016074;28;20543;-57
2022/11/29 02:54:45;;;;;;;41.28;21.02;;;;;;;5.48;100.00;101416.56;5014646;28;20060;-60
2022/11/29 02:57:25;;;;;;;43.90;20.80;;;;;;;5.51;100.00;101416.38;5019472;28;20033;-57
2022/11/29 03:00:03;;;;;;;38.55;20.05;;;;;;;5.50;100.00;101422.59;5018154;28;20034;-58
2022/11/29 03:02:41;;;;;;;43.38;20.65;;;;;;;5.46;100.00;101422.91;5013682;28;20148;-59
2022/11/29 03:05:35;;;;;;;38.67;20.48;;;;;;;5.46;100.00;101423.75;5017935;28;20871;-59
2022/11/29 03:08:28;;;;;;;41.22;20.50;;;;;;;5.47;100.00;101421.94;5016551;28;20065;-59
2022/11/29 03:11:10;;;;;;;40.40;21.55;;;;;;;5.42;100.00;101427.56;5023520;28;20037;-56
2022/11/29 03:13:44;;;;;;;33.67;20.48;;;;;;;5.41;100.00;101433.78;5011509;28;20132;-58
2022/11/29 03:16:19;;;;;;;30.95;21.05;;;;;;;5.40;100.00;101434.72;5009951;28;20128;-59
2022/11/29 03:19:07;;;;;;;37.17;20.90;;;;;;;5.39;100.00;101433.06;5016014;28;20540;-58
2022/11/29 03:21:44;;;;;;;30.85;20.30;;;;;;;5.34;100.00;101435.19;5019921;28;20480;-58
2022/11/29 03:24:25;;;;;;;34.05;19.55;;;;;;;5.31;100.00;101435.38;5016699;28;20045;-57
2022/11/29 03:27:02;;;;;;;30.83;19.60;;;;;;;5.25;100.00;101447.22;5014372;28;20801;-58
2022/11/29 03:29:36;;;;;;;32.88;20.63;;;;;;;5.22;100.00;101448.25;5015772;28;20037;-60
2022/11/29 03:32:08;;;;;;;32.30;20.52;;;;;;;5.21;100.00;101446.59;5012415;28;20037;-57
2022/11/29 03:35:01;;;;;;;30.35;19.90;;;;;;;5.23;100.00;101455.19;5011239;28;20489;-58
2022/11/29 03:37:46;;;;;;;38.63;21.35;;;;;;;5.18;100.00;101446.78;5011260;28;20115;-57
2022/11/29 03:40:18;;;;;;;34.45;20.70;;;;;;;5.14;100.00;101450.63;5009345;28;20042;-58
2022/11/29 03:42:56;;;;;;;38.38;20.55;;;;;;;5.13;100.00;101458.59;5012588;28;20037;-58
2022/11/29 03:45:42;;;;;;;39.78;19.95;;;;;;;5.15;100.00;101462.81;5011049;28;20025;-60
2022/11/29 03:48:14;;;;;;;38.28;19.80;;;;;;;5.08;100.00;101461.56;5010362;28;20927;-60
2022/11/29 03:50:51;;;;;;;38.58;20.38;;;;;;;5.06;100.00;101452.94;5013983;28;20183;-58
2022/11/29 03:53:27;;;;;;;51.90;19.90;;;;;;;5.07;100.00;101465.13;5012189;28;20041;-56
2022/11/29 03:55:57;;;;;;;52.13;20.38;;;;;;;5.02;100.00;101462.03;5007544;28;20053;-57
2022/11/29 03:58:35;;;;;;;44.72;20.65;;;;;;;5.07;100.00;101470.38;5018269;28;20511;-59
2022/11/29 04:01:36;;;;;;;39.28;20.08;;;;;;;5.08;100.00;101466.84;5015022;28;20465;-57
2022/11/29 04:04:10;;;;;;;55.75;19.90;;;;;;;5.04;100.00;101475.88;5013800;28;20037;-57
2022/11/29 04:07:03;;;;;;;66.25;20.02;;;;;;;5.03;100.00;101479.47;5021587;28;20033;-58
2022/11/29 04:09:48;;;;;;;43.72;19.30;;;;;;;5.03;100.00;101490.81;5013792;28;20121;-59
2022/11/29 04:12:35;;;;;;;51.63;19.23;;;;;;;5.02;100.00;101491.75;5014963;28;20044;-57
2022/11/29 04:15:38;;;;;;;50.42;19.75;;;;;;;5.03;100.00;101487.34;5006681;28;20034;-59
2022/11/29 04:18:17;;;;;;;45.17;18.63;;;;;;;4.97;100.00;101492.09;5018620;28;20040;-57
2022/11/29 04:20:57;;;;;;;56.10;18.85;;;;;;;4.96;100.00;101490.41;5020321;28;20037;-57
2022/11/29 04:23:43;;;;;;;65.20;18.85;;;;;;;4.93;100.00;101490.63;5019278;28;20043;-58
2022/11/29 04:26:41;;;;;;;44.28;18.52;;;;;;;4.90;100.00;101490.84;5011814;28;20037;-57
2022/11/29 04:29:45;;;;;;;47.83;18.52;;;;;;;4.91;100.00;101491.66;5006529;28;20064;-58
2022/11/29 04:33:05;;;;;;;41.67;18.40;;;;;;;4.92;100.00;101494.19;4991980;28;20057;-60
2022/11/29 04:36:02;;;;;;;43.22;18.23;;;;;;;4.86;100.00;101484.13;5010713;28;20041;-59
2022/11/29 04:38:33;;;;;;;40.88;17.90;;;;;;;4.79;100.00;101493.38;5017560;28;20056;-57
2022/11/29 04:41:20;;;;;;;41.35;18.75;;;;;;;4.77;100.00;101487.38;5020140;28;20047;-57
2022/11/29 04:44:06;;;;;;;37.63;18.50;;;;;;;4.76;100.00;101489.19;5017469;28;20030;-59
2022/11/29 04:46:37;;;;;;;39.67;19.25;;;;;;;4.73;100.00;101494.63;5015331;28;20113;-57
2022/11/29 04:49:13;;;;;;;37.38;18.77;;;;;;;4.69;100.00;101499.28;5015859;28;20037;-56
2022/11/29 04:51:47;;;;;;;43.58;18.95;;;;;;;4.70;100.00;101500.94;5012879;28;20048;-59
2022/11/29 04:54:32;;;;;;;41.28;18.83;;;;;;;4.67;100.00;101498.53;5013773;28;20030;-57
2022/11/29 04:57:07;;;;;;;30.02;18.00;;;;;;;4.69;100.00;101509.78;5014830;28;20039;-60
2022/11/29 04:59:58;;;;;;;41.38;18.80;;;;;;;4.73;100.00;101504.31;5013764;28;20056;-58
2022/11/29 05:02:53;;;;;;;34.10;18.52;;;;;;;4.74;100.00;101506.00;5009630;28;20473;-57
2022/11/29 05:05:49;;;;;;;32.63;18.20;;;;;;;4.74;100.00;101511.25;5008654;28;20559;-59
2022/11/29 05:08:31;;;;;;;35.65;18.30;;;;;;;4.73;100.00;101514.84;5012638;28;20040;-57
2022/11/29 05:11:09;;;;;;;30.25;18.27;;;;;;;4.72;100.00;101524.50;5021257;28;20064;-59
2022/11/29 05:14:02;;;;;;;32.65;17.15;;;;;;;4.68;100.00;101523.88;5016541;28;20056;-59
2022/11/29 05:16:41;;;;;;;27.05;17.83;;;;;;;4.69;100.00;101533.44;5017459;28;20044;-56
2022/11/29 05:19:26;;;;;;;33.40;18.40;;;;;;;4.67;100.00;101535.34;5014484;28;20026;-57
2022/11/29 05:22:02;;;;;;;27.38;17.33;;;;;;;4.62;100.00;101540.06;5018341;28;20029;-58
2022/11/29 05:24:54;;;;;;;28.35;17.88;;;;;;;4.65;100.00;101539.84;5022566;28;20041;-57
2022/11/29 05:27:28;;;;;;;39.78;16.90;;;;;;;4.43;100.00;101546.56;5019118;28;20493;-56
2022/11/29 05:30:19;;;;;;;27.92;16.73;;;;;;;4.54;100.00;101552.88;5015907;28;20147;-59
2022/11/29 05:32:49;;;;;;;26.60;17.58;;;;;;;4.56;100.00;101556.22;5022635;28;20072;-58
2022/11/29 05:35:49;;;;;;;32.30;18.05;;;;;;;4.59;100.00;101556.00;5018236;28;20049;-57
2022/11/29 05:38:36;;;;;;;33.67;18.05;;;;;;;4.54;100.00;101563.38;5016275;28;20086;-58
2022/11/29 05:41:29;;;;;;;32.35;17.45;;;;;;;4.54;100.00;101563.38;5020322;28;20132;-57
2022/11/29 05:44:17;;;;;;;36.40;18.15;;;;;;;4.53;100.00;101567.78;5020232;28;20037;-60
2022/11/29 05:46:53;;;;;;;42.58;18.92;;;;;;;4.48;100.00;101574.31;5016047;28;20124;-59
2022/11/29 05:49:40;;;;;;;29.23;18.30;;;;;;;4.58;100.00;101575.34;5023973;28;20065;-58
2022/11/29 05:52:21;;;;;;;52.47;19.42;;;;;;;4.58;100.00;101585.84;5014411;28;20136;-55
2022/11/29 05:55:01;;;;;;;31.88;18.52;;;;;;;4.65;100.00;101576.63;5019324;28;20043;-59
2022/11/29 05:57:44;;;;;;;37.67;18.58;;;;;;;4.67;100.00;101589.66;5008118;28;20865;-58
2022/11/29 06:00:13;;;;;;;35.53;18.70;;;;;;;4.63;100.00;101583.75;5013121;28;20034;-57
2022/11/29 06:02:54;;;;;;;30.73;19.30;;;;;;;4.66;100.00;101578.31;5012143;28;20036;-57
2022/11/29 06:05:55;;;;;;;48.42;18.67;;;;;;;4.64;100.00;101582.81;5017370;28;20500;-57
2022/11/29 06:08:41;;;;;;;41.50;18.77;;;;;;;4.62;100.00;101587.34;5013254;28;20068;-59
2022/11/29 06:11:29;;;;;;;32.90;19.25;;;;;;;4.65;100.00;101595.03;5009440;28;20038;-58
2022/11/29 06:13:57;;;;;;;34.33;19.77;;;;;;;4.66;100.00;101604.59;5016293;28;20481;-57
2022/11/29 06:16:46;;;;;;;40.15;20.52;;;;;;;4.68;100.00;101614.97;5017780;28;20548;-57
2022/11/29 06:20:09;;;;;;;29.85;19.40;;;;;;;4.77;100.00;101605.63;5016395;28;20033;-56
2022/11/29 06:23:00;;;;;;;31.50;19.02;;;;;;;4.73;100.00;101620.75;5020909;28;20069;-57
2022/11/29 06:25:46;;;;;;;33.20;20.45;;;;;;;4.68;100.00;101612.34;5018865;28;20112;-57
2022/11/29 06:28:26;;;;;;;38.20;20.35;;;;;;;4.70;100.00;101621.81;5014739;28;20237;-56
2022/11/29 06:31:19;;;;;;;39.33;19.10;;;;;;;4.75;100.00;101629.41;5010538;28;20473;-58
2022/11/29 06:34:04;;;;;;;36.05;19.85;;;;;;;4.74;100.00;101626.88;5009819;28;20572;-57
2022/11/29 06:36:35;;;;;;;34.45;20.23;;;;;;;4.69;100.00;101633.28;5007126;28;20444;-57
2022/11/29 06:39:00;;;;;;;31.10;20.90;;;;;;;4.69;100.00;101635.91;5003630;28;20112;-57
2022/11/29 06:41:26;;;;;;;34.22;19.65;;;;;;;4.71;100.00;101649.78;5002125;28;20560;-58
2022/11/29 06:43:52;;;;;;;34.78;20.08;;;;;;;4.76;100.00;101646.00;5006307;28;20021;-59
2022/11/29 06:46:29;;;;;;;44.45;20.63;;;;;;;4.70;100.00;101650.72;5006505;28;20037;-59
2022/11/29 06:49:13;;;;;;;36.53;19.98;;;;;;;4.75;100.00;101645.16;5006867;28;20034;-57
2022/11/29 06:52:07;;;;;;;32.13;20.08;;;;;;;4.76;100.00;101657.34;5005386;28;20050;-57
2022/11/29 06:54:48;;;;;;;30.00;19.70;;;;;;;4.78;100.00;101659.88;5010516;28;20044;-57
2022/11/29 06:57:35;;;;;;;29.67;20.13;;;;;;;4.74;100.00;101658.41;5013650;28;20044;-57
2022/11/29 07:00:15;;;;;;;31.40;19.33;;;;;;;4.78;100.00;101662.53;5010914;28;20037;-59
2022/11/29 07:03:05;;;;;;;32.03;19.90;;;;;;;4.75;100.00;101655.69;5014263;28;20045;-58
2022/11/29 07:05:33;;;;;;;26.45;19.23;;;;;;;4.80;100.00;101661.44;5015505;28;20109;-56
2022/11/29 07:08:03;;;;;;;27.98;19.42;;;;;;;4.80;100.00;101668.50;5014396;28;20752;-58
2022/11/29 07:10:32;;;;;;;29.50;18.90;;;;;;;4.82;100.00;101666.59;5013262;28;20034;-57
2022/11/29 07:12:57;;;;;;;28.27;19.05;;;;;;;4.84;100.00;101672.63;5015408;28;20067;-58
2022/11/29 07:15:23;;;;;;;29.63;19.90;;;;;;;4.84;100.00;101680.50;5009329;28;20421;-57
2022/11/29 07:18:17;;;;;;;29.00;19.00;;;;;;;4.87;100.00;101679.47;5009261;28;20037;-58
2022/11/29 07:21:30;;;;;;;32.42;19.42;;;;;;;4.89;100.00;101686.25;5016575;28;20033;-58
2022/11/29 07:24:14;;;;;;;35.53;21.08;;;;;;;4.89;100.00;101691.53;5014137;28;20528;-57
2022/11/29 07:26:58;;;;;;;35.05;21.77;;;;;;;4.87;100.00;101689.97;5010490;28;20153;-57
2022/11/29 07:29:45;;;;;;;32.45;19.52;;;;;;;4.90;100.00;101695.00;5016142;28;20028;-57
2022/11/29 07:32:16;;;;;;;32.72;20.70;;;;;;;4.84;100.00;101701.53;5014124;28;20124;-57
2022/11/29 07:34:57;;;;;;;32.90;20.25;;;;;;;4.84;100.00;101702.34;5013478;28;20247;-57
2022/11/29 07:37:33;;;;;;;34.47;20.75;;;;;;;4.85;100.00;101713.72;5012101;28;20037;-59
2022/11/29 07:40:05;;;;;;;38.72;21.02;;;;;;;4.81;100.00;101712.22;5011507;28;20069;-57
2022/11/29 07:42:50;;;;;;;34.47;21.50;;;;;;;4.86;100.00;101710.13;5011871;28;20041;-59
2022/11/29 07:45:36;;;;;;;36.80;22.05;;;;;;;4.88;100.00;101718.75;5011211;28;20470;-59
2022/11/29 07:48:02;;;;;;;41.40;22.00;;;;;;;4.88;100.00;101713.50;5015949;28;20126;-56
2022/11/29 07:50:28;;;;;;;36.80;22.65;;;;;;;4.89;100.00;101715.19;5014788;28;20044;-58
2022/11/29 07:52:55;;;;;;;38.90;22.40;;;;;;;4.89;100.00;101709.91;5014783;28;20032;-57
2022/11/29 07:55:22;;;;;;;41.10;21.98;;;;;;;4.93;100.00;101716.66;5009300;28;20064;-57
2022/11/29 07:57:48;;;;;;;38.08;23.45;;;;;;;4.94;100.00;101718.34;5014607;28;20030;-56
2022/11/29 08:00:15;;;;;;;40.85;22.98;;;;;;;4.97;100.00;101718.16;5015543;28;20049;-57
2022/11/29 08:02:41;;;;;;;40.40;21.85;;;;;;;4.98;100.00;101716.34;5010976;28;20113;-57
2022/11/29 08:05:07;;;;;;;39.00;21.13;;;;;;;5.00;100.00;101722.38;5009627;28;20124;-59
2022/11/29 08:07:34;;;;;;;48.72;21.88;;;;;;;5.01;100.00;101723.19;5008646;28;20064;-60
2022/11/29 08:10:00;;;;;;;41.38;22.33;;;;;;;5.02;100.00;101730.97;5015757;28;20040;-59
2022/11/29 08:12:25;;;;;;;41.78;21.92;;;;;;;5.03;100.00;101721.31;5011782;28;20025;-59
2022/11/29 08:14:50;;;;;;;39.33;22.17;;;;;;;5.05;100.00;101732.56;5012239;28;20473;-57
2022/11/29 08:17:17;;;;;;;40.25;21.65;;;;;;;5.06;100.00;101731.63;5014854;28;20083;-56
2022/11/29 08:19:42;;;;;;;45.47;22.58;;;;;;;5.03;100.00;101727.41;5009387;28;20041;-58
2022/11/29 08:22:08;;;;;;;46.28;23.92;;;;;;;5.04;100.00;101736.16;5013807;28;20041;-57
2022/11/29 08:24:33;;;;;;;43.33;24.15;;;;;;;5.04;100.00;101730.88;5016031;28;20037;-58
2022/11/29 08:26:58;;;;;;;44.35;23.67;;;;;;;5.06;100.00;101731.63;5017751;28;20371;-56
2022/11/29 08:29:24;;;;;;;46.42;24.20;;;;;;;5.05;100.00;101729.94;5010937;28;20540;-59
2022/11/29 08:31:52;;;;;;;42.83;24.13;;;;;;;5.07;100.00;101738.56;5007972;28;20069;-56
2022/11/29 08:34:21;;;;;;;44.53;25.20;;;;;;;5.11;100.00;101740.03;5016860;28;20903;-57
2022/11/29 08:36:47;;;;;;;45.42;25.15;;;;;;;5.13;100.00;101743.41;5017676;28;20142;-57
2022/11/29 08:39:12;;;;;;;47.13;25.02;;;;;;;5.13;100.00;101743.41;5020896;28;20501;-57
2022/11/29 08:41:38;;;;;;;48.15;24.55;;;;;;;5.12;100.00;101741.72;5021275;28;20049;-58
2022/11/29 08:44:04;;;;;;;49.33;25.08;;;;;;;5.13;100.00;101743.41;5024583;28;20026;-57
2022/11/29 08:49:13;;;;;;;48.45;25.23;;;;;;;5.13;100.00;101748.66;5016560;28;20132;-57
2022/11/29 08:51:39;;;;;;;47.88;25.63;;;;;;;5.16;100.00;101758.97;5013808;28;20456;-57
2022/11/29 08:54:04;;;;;;;59.55;25.88;;;;;;;5.19;100.00;101757.94;5016442;28;20084;-56
2022/11/29 08:56:30;;;;;;;53.83;26.40;;;;;;;5.20;100.00;101764.88;5016393;28;20033;-57
2022/11/29 08:58:55;;;;;;;51.13;25.92;;;;;;;5.21;100.00;101759.53;5008917;28;20472;-58
2022/11/29 09:01:20;;;;;;;62.50;26.38;;;;;;;5.23;100.00;101762.88;5015704;28;20029;-57
2022/11/29 09:03:58;;;;;;;58.38;25.63;;;;;;;5.28;100.00;101761.72;5010842;28;22926;-58
2022/11/29 09:06:24;;;;;;;56.95;26.05;;;;;;;5.29;100.00;101763.41;5009471;28;20048;-57
2022/11/29 09:08:49;;;;;;;74.85;26.08;;;;;;;5.28;100.00;101767.00;5006014;28;20042;-61
2022/11/29 09:11:18;;;;;;;69.10;26.38;;;;;;;5.29;100.00;101763.41;5020150;28;20500;-60
2022/11/29 09:13:45;;;;;;;85.30;27.02;;;;;;;5.28;100.00;101773.06;5009442;28;20048;-61
2022/11/29 09:16:13;;;;;;;68.90;26.30;;;;;;;5.30;100.00;101779.09;5008231;28;20495;-60
2022/11/29 09:18:40;;;;;;;66.10;26.55;;;;;;;5.33;100.00;101780.69;5009824;28;20034;-59
2022/11/29 09:21:11;;;;;;;76.25;26.73;;;;;;;5.34;100.00;101777.09;5009451;28;20593;-60
2022/11/29 09:23:38;;;;;;;77.18;27.35;;;;;;;5.35;100.00;101779.63;5011172;28;20088;-60
2022/11/29 09:26:05;;;;;;;108.43;26.60;;;;;;;5.34;100.00;101782.34;5009566;28;20486;-59
2022/11/29 09:28:30;;;;;;;90.47;26.48;;;;;;;5.35;100.00;101789.28;5008121;28;20087;-59
2022/11/29 09:31:06;;;;;;;77.40;27.92;;;;;;;5.39;100.00;101785.53;5018030;28;20037;-62
2022/11/29 09:33:32;;;;;;;75.85;27.55;;;;;;;5.39;100.00;101782.91;5011339;28;20511;-60
2022/11/29 09:35:58;;;;;;;71.07;26.10;;;;;;;5.45;100.00;101794.78;5011443;28;20033;-60
2022/11/29 09:38:24;;;;;;;75.85;27.50;;;;;;;5.47;100.00;101803.41;5020167;28;20033;-60
2022/11/29 09:40:54;;;;;;;76.55;28.38;;;;;;;5.48;100.00;101808.56;5012793;28;20547;-60
2022/11/29 09:43:22;;;;;;;74.43;28.40;;;;;;;5.52;100.00;101806.56;5015404;28;20504;-60
2022/11/29 09:45:54;;;;;;;62.30;26.80;;;;;;;5.54;100.00;101809.94;5012855;28;20043;-60
2022/11/29 09:48:46;;;;;;;73.00;28.40;;;;;;;5.57;100.00;101819.44;5011321;28;20044;-59
2022/11/29 09:51:47;;;;;;;77.18;27.40;;;;;;;5.62;100.00;101817.28;5014974;28;20152;-61
2022/11/29 09:54:30;;;;;;;77.43;24.95;;;;;;;5.69;100.00;101823.84;5007949;28;20034;-60
2022/11/29 09:56:56;;;;;;;68.85;24.83;;;;;;;5.64;100.00;101820.69;5019584;28;20032;-59
2022/11/29 09:59:31;;;;;;;58.92;20.85;;;;;;;5.68;100.00;101819.53;5017866;28;20033;-59
2022/11/29 10:02:03;;;;;;;69.43;20.88;;;;;;;5.71;100.00;101818.47;5005374;28;20129;-60
2022/11/29 10:04:35;;;;;;;69.53;20.30;;;;;;;5.75;100.00;101823.44;5015972;28;20033;-59
2022/11/29 10:07:22;;;;;;;60.33;20.40;;;;;;;5.77;100.00;101821.53;5008545;28;20473;-60
2022/11/29 10:09:55;;;;;;;74.18;22.35;;;;;;;5.82;100.00;101828.28;5013291;28;20033;-59
2022/11/29 10:12:35;;;;;;;58.55;23.88;;;;;;;5.86;100.00;101822.69;5008208;28;20397;-60
2022/11/29 10:15:09;;;;;;;77.47;22.23;;;;;;;5.81;100.00;101826.59;5006114;28;20397;-60
2022/11/29 10:17:43;;;;;;;57.40;20.88;;;;;;;5.82;100.00;101823.00;5009937;28;20425;-60
2022/11/29 10:20:14;;;;;;;79.88;21.40;;;;;;;5.79;100.00;101816.97;5010461;28;20601;-60
2022/11/29 10:22:52;;;;;;;63.08;20.25;;;;;;;5.88;100.00;101822.56;5010158;28;20046;-60
2022/11/29 10:25:47;;;;;;;76.30;21.00;;;;;;;5.92;100.00;101818.75;5015954;28;20029;-58
2022/11/29 10:28:15;;;;;;;56.65;21.75;;;;;;;5.86;100.00;101814.78;5020429;28;20041;-60
2022/11/29 10:30:42;;;;;;;73.05;20.17;;;;;;;5.89;100.00;101813.72;5029370;28;20047;-53
2022/11/29 10:33:24;;;;;;;57.47;21.70;;;;;;;5.95;100.00;101815.94;5018518;28;20034;-55
2022/11/29 10:35:54;;;;;;;68.63;20.23;;;;;;;5.89;100.00;101803.19;5019054;28;20026;-51
2022/11/29 10:38:19;;;;;;;119.75;18.35;;;;;;;5.96;100.00;101812.34;5022791;28;20061;-51
2022/11/29 10:40:49;;;;;;;69.10;19.77;;;;;;;5.98;100.00;101813.09;5019470;28;20143;-51
2022/11/29 10:43:15;;;;;;;64.20;19.50;;;;;;;5.97;100.00;101811.38;5022253;28;20507;-52
2022/11/29 10:45:54;;;;;;;72.85;20.73;;;;;;;5.98;100.00;101807.84;5013592;28;20025;-54
2022/11/29 10:48:23;;;;;;;59.38;19.75;;;;;;;6.00;100.00;101816.47;5015054;28;20053;-49
2022/11/29 10:50:50;;;;;;;83.30;21.25;;;;;;;6.01;100.00;101823.41;5021646;28;20968;-50
2022/11/29 10:53:21;;;;;;;82.32;21.75;;;;;;;6.00;100.00;101820.88;5018683;28;20044;-54
2022/11/29 10:55:57;;;;;;;68.85;20.05;;;;;;;5.99;100.00;101825.31;5022206;28;20495;-50
2022/11/29 10:58:25;;;;;;;64.03;19.90;;;;;;;5.93;100.00;101817.84;5017806;28;20113;-52
2022/11/29 11:00:57;;;;;;;61.45;20.02;;;;;;;5.95;100.00;101821.19;5015003;28;20044;-59
2022/11/29 11:03:34;;;;;;;53.77;20.53;;;;;;;5.94;100.00;101830.06;5011781;28;20025;-59
2022/11/29 11:06:04;;;;;;;68.82;20.75;;;;;;;5.92;100.00;101824.03;5008935;28;20113;-57
2022/11/29 11:08:31;;;;;;;58.08;20.52;;;;;;;5.93;100.00;101820.47;5010631;28;20038;-57
2022/11/29 11:10:57;;;;;;;64.38;20.85;;;;;;;5.92;100.00;101824.03;5007007;28;20799;-57
2022/11/29 11:13:25;;;;;;;76.97;22.08;;;;;;;5.91;100.00;101817.09;5020050;28;20120;-57
2022/11/29 11:16:08;;;;;;;76.93;21.90;;;;;;;5.98;100.00;101823.63;5022863;28;20061;-57
2022/11/29 11:18:34;;;;;;;63.45;22.08;;;;;;;6.00;100.00;101812.97;5012279;28;20967;-58
2022/11/29 11:21:03;;;;;;;59.63;22.80;;;;;;;6.01;100.00;101823.41;5018310;28;20088;-58
2022/11/29 11:23:34;;;;;;;65.60;22.60;;;;;;;6.02;100.00;101819.84;5015315;28;20112;-57
2022/11/29 11:26:06;;;;;;;72.03;22.02;;;;;;;6.05;100.00;101824.91;5012591;28;20037;-57
2022/11/29 11:29:01;;;;;;;69.82;23.35;;;;;;;6.10;100.00;101826.38;5009011;28;20037;-59
2022/11/29 11:31:26;;;;;;;76.22;22.35;;;;;;;6.08;100.00;101828.28;5013773;28;20057;-57
2022/11/29 11:33:52;;;;;;;66.95;22.77;;;;;;;6.05;100.00;101830.19;5019068;28;20032;-57
2022/11/29 11:36:20;;;;;;;67.57;22.35;;;;;;;6.09;100.00;101832.59;5011082;28;20029;-57
2022/11/29 11:39:08;;;;;;;64.85;21.25;;;;;;;6.12;100.00;101829.75;5012375;28;20045;-57
2022/11/29 11:44:44;;;;;;;49.63;21.30;;;;;;;6.02;100.00;101833.00;5013972;28;20400;-59
2022/11/29 11:47:14;;;;;;;47.67;21.23;;;;;;;5.98;100.00;101839.44;5011683;28;20046;-57
2022/11/29 11:50:02;;;;;;;57.15;22.27;;;;;;;5.99;100.00;101841.13;5010705;28;20113;-57
2022/11/29 11:52:32;;;;;;;60.83;21.48;;;;;;;6.01;100.00;101841.84;5009159;28;20037;-57